sensor_id;sensor_type;location;lat;lon;timestamp;P1;durP1;ratioP1;P2;durP2;ratioP2
79798;SDS011;69283;48.024;11.090;2024-01-30T00:00:45;6.37;;;3.43;;
79798;SDS011;69283;48.024;11.090;2024-01-30T00:03:11;7.32;;;3.33;;
79798;SDS011;69283;48.024;11.090;2024-01-30T00:05:36;9.25;;;3.40;;
79798;SDS011;69283;48.024;11.090;2024-01-30T00:08:01;8.30;;;3.60;;
79798;SDS011;69283;48.024;11.090;2024-01-30T00:10:27;8.68;;;3.17;;
79798;SDS011;69283;48.024;11.090;2024-01-30T00:12:52;7.93;;;3.30;;
79798;SDS011;69283;48.024;11.090;2024-01-30T00:15:17;7.40;;;3.47;;
79798;SDS011;69283;48.024;11.090;2024-01-30T00:20:40;6.28;;;3.70;;
79798;SDS011;69283;48.024;11.090;2024-01-30T00:23:05;7.43;;;4.00;;
79798;SDS011;69283;48.024;11.090;2024-01-30T00:25:31;10.37;;;4.47;;
79798;SDS011;69283;48.024;11.090;2024-01-30T00:27:58;8.43;;;4.20;;
79798;SDS011;69283;48.024;11.090;2024-01-30T00:30:23;8.35;;;3.70;;
79798;SDS011;69283;48.024;11.090;2024-01-30T00:32:49;11.82;;;4.50;;
79798;SDS011;69283;48.024;11.090;2024-01-30T00:35:14;6.17;;;3.70;;
79798;SDS011;69283;48.024;11.090;2024-01-30T00:37:39;6.47;;;3.97;;
79798;SDS011;69283;48.024;11.090;2024-01-30T00:40:05;6.83;;;3.87;;
79798;SDS011;69283;48.024;11.090;2024-01-30T00:42:31;8.85;;;3.95;;
79798;SDS011;69283;48.024;11.090;2024-01-30T00:47:36;7.00;;;3.17;;
79798;SDS011;69283;48.024;11.090;2024-01-30T00:50:01;7.37;;;3.23;;
79798;SDS011;69283;48.024;11.090;2024-01-30T00:52:26;9.83;;;3.20;;
79798;SDS011;69283;48.024;11.090;2024-01-30T00:54:52;7.23;;;3.37;;
79798;SDS011;69283;48.024;11.090;2024-01-30T00:57:17;9.13;;;3.60;;
79798;SDS011;69283;48.024;11.090;2024-01-30T00:59:42;7.30;;;3.40;;
79798;SDS011;69283;48.024;11.090;2024-01-30T01:02:08;6.68;;;3.67;;
79798;SDS011;69283;48.024;11.090;2024-01-30T01:04:33;8.77;;;3.92;;
79798;SDS011;69283;48.024;11.090;2024-01-30T01:06:58;7.50;;;3.30;;
79798;SDS011;69283;48.024;11.090;2024-01-30T01:09:23;5.97;;;2.97;;
79798;SDS011;69283;48.024;11.090;2024-01-30T01:14:04;6.40;;;2.95;;
79798;SDS011;69283;48.024;11.090;2024-01-30T01:16:30;7.85;;;3.97;;
79798;SDS011;69283;48.024;11.090;2024-01-30T01:18:55;7.28;;;3.50;;
79798;SDS011;69283;48.024;11.090;2024-01-30T01:21:21;11.02;;;3.22;;
79798;SDS011;69283;48.024;11.090;2024-01-30T01:23:46;9.67;;;2.77;;
79798;SDS011;69283;48.024;11.090;2024-01-30T01:26:11;6.03;;;3.00;;
79798;SDS011;69283;48.024;11.090;2024-01-30T01:28:36;6.17;;;3.03;;
79798;SDS011;69283;48.024;11.090;2024-01-30T01:31:02;8.70;;;2.80;;
79798;SDS011;69283;48.024;11.090;2024-01-30T01:33:33;5.93;;;2.90;;
79798;SDS011;69283;48.024;11.090;2024-01-30T01:38:40;5.30;;;2.80;;
79798;SDS011;69283;48.024;11.090;2024-01-30T01:41:05;7.53;;;3.90;;
79798;SDS011;69283;48.024;11.090;2024-01-30T01:43:30;7.73;;;3.03;;
79798;SDS011;69283;48.024;11.090;2024-01-30T01:45:56;6.43;;;3.22;;
79798;SDS011;69283;48.024;11.090;2024-01-30T01:48:21;8.30;;;3.53;;
79798;SDS011;69283;48.024;11.090;2024-01-30T01:50:46;11.43;;;3.60;;
79798;SDS011;69283;48.024;11.090;2024-01-30T01:53:12;7.25;;;3.40;;
79798;SDS011;69283;48.024;11.090;2024-01-30T01:55:38;7.82;;;3.20;;
79798;SDS011;69283;48.024;11.090;2024-01-30T01:58:04;7.38;;;3.15;;
79798;SDS011;69283;48.024;11.090;2024-01-30T02:02:54;7.68;;;3.60;;
79798;SDS011;69283;48.024;11.090;2024-01-30T02:05:21;6.93;;;3.60;;
79798;SDS011;69283;48.024;11.090;2024-01-30T02:07:46;7.18;;;2.75;;
79798;SDS011;69283;48.024;11.090;2024-01-30T02:20:28;8.77;;;2.92;;
79798;SDS011;69283;48.024;11.090;2024-01-30T02:22:56;8.40;;;3.50;;
79798;SDS011;69283;48.024;11.090;2024-01-30T02:25:33;5.95;;;2.45;;
79798;SDS011;69283;48.024;11.090;2024-01-30T02:28:01;6.47;;;2.88;;
79798;SDS011;69283;48.024;11.090;2024-01-30T02:30:26;7.53;;;3.15;;
79798;SDS011;69283;48.024;11.090;2024-01-30T02:34:51;5.75;;;2.65;;
79798;SDS011;69283;48.024;11.090;2024-01-30T02:37:17;5.53;;;2.50;;
79798;SDS011;69283;48.024;11.090;2024-01-30T02:39:42;6.07;;;2.87;;
79798;SDS011;69283;48.024;11.090;2024-01-30T02:42:07;5.60;;;3.27;;
79798;SDS011;69283;48.024;11.090;2024-01-30T02:44:32;10.67;;;3.40;;
79798;SDS011;69283;48.024;11.090;2024-01-30T02:46:58;16.33;;;5.50;;
79798;SDS011;69283;48.024;11.090;2024-01-30T02:49:23;17.33;;;6.53;;
79798;SDS011;69283;48.024;11.090;2024-01-30T02:51:48;15.27;;;6.70;;
79798;SDS011;69283;48.024;11.090;2024-01-30T02:54:14;13.35;;;4.95;;
79798;SDS011;69283;48.024;11.090;2024-01-30T02:56:39;9.33;;;3.60;;
79798;SDS011;69283;48.024;11.090;2024-01-30T03:01:42;7.70;;;2.80;;
79798;SDS011;69283;48.024;11.090;2024-01-30T03:04:09;7.55;;;2.63;;
79798;SDS011;69283;48.024;11.090;2024-01-30T03:06:34;5.60;;;2.90;;
79798;SDS011;69283;48.024;11.090;2024-01-30T03:09:00;8.60;;;3.63;;
79798;SDS011;69283;48.024;11.090;2024-01-30T03:11:25;6.33;;;2.33;;
79798;SDS011;69283;48.024;11.090;2024-01-30T03:13:50;5.47;;;2.33;;
79798;SDS011;69283;48.024;11.090;2024-01-30T03:16:15;6.53;;;2.83;;
79798;SDS011;69283;48.024;11.090;2024-01-30T03:18:41;6.80;;;3.00;;
79798;SDS011;69283;48.024;11.090;2024-01-30T03:21:06;6.90;;;3.37;;
79798;SDS011;69283;48.024;11.090;2024-01-30T03:23:31;6.88;;;3.28;;
79798;SDS011;69283;48.024;11.090;2024-01-30T03:27:36;3.97;;;1.98;;
79798;SDS011;69283;48.024;11.090;2024-01-30T03:30:01;7.20;;;2.40;;
79798;SDS011;69283;48.024;11.090;2024-01-30T03:32:27;7.32;;;2.78;;
79798;SDS011;69283;48.024;11.090;2024-01-30T03:34:52;6.30;;;2.40;;
79798;SDS011;69283;48.024;11.090;2024-01-30T03:37:18;5.60;;;2.78;;
79798;SDS011;69283;48.024;11.090;2024-01-30T03:39:43;6.25;;;2.50;;
79798;SDS011;69283;48.024;11.090;2024-01-30T03:42:08;4.33;;;2.03;;
79798;SDS011;69283;48.024;11.090;2024-01-30T03:44:34;5.47;;;2.37;;
79798;SDS011;69283;48.024;11.090;2024-01-30T03:46:59;4.57;;;2.27;;
79798;SDS011;69283;48.024;11.090;2024-01-30T03:49:24;5.17;;;2.10;;
79798;SDS011;69283;48.024;11.090;2024-01-30T03:52:57;6.65;;;2.35;;
79798;SDS011;69283;48.024;11.090;2024-01-30T03:55:23;5.93;;;2.40;;
79798;SDS011;69283;48.024;11.090;2024-01-30T03:57:48;8.90;;;2.57;;
79798;SDS011;69283;48.024;11.090;2024-01-30T04:00:14;4.32;;;2.42;;
79798;SDS011;69283;48.024;11.090;2024-01-30T04:02:39;5.88;;;2.78;;
79798;SDS011;69283;48.024;11.090;2024-01-30T04:05:05;6.32;;;2.55;;
79798;SDS011;69283;48.024;11.090;2024-01-30T04:07:31;5.18;;;2.78;;
79798;SDS011;69283;48.024;11.090;2024-01-30T04:09:57;5.25;;;3.20;;
79798;SDS011;69283;48.024;11.090;2024-01-30T04:12:22;3.95;;;2.35;;
79798;SDS011;69283;48.024;11.090;2024-01-30T04:14:47;5.88;;;2.50;;
79798;SDS011;69283;48.024;11.090;2024-01-30T04:17:12;5.97;;;2.97;;
79798;SDS011;69283;48.024;11.090;2024-01-30T04:20:38;3.92;;;2.00;;
79798;SDS011;69283;48.024;11.090;2024-01-30T04:23:04;8.63;;;2.57;;
79798;SDS011;69283;48.024;11.090;2024-01-30T04:25:29;4.70;;;2.73;;
79798;SDS011;69283;48.024;11.090;2024-01-30T04:27:54;7.17;;;2.87;;
79798;SDS011;69283;48.024;11.090;2024-01-30T04:30:19;8.63;;;3.13;;
79798;SDS011;69283;48.024;11.090;2024-01-30T04:32:45;5.03;;;2.90;;
79798;SDS011;69283;48.024;11.090;2024-01-30T04:35:10;4.57;;;2.57;;
79798;SDS011;69283;48.024;11.090;2024-01-30T04:37:35;5.40;;;2.27;;
79798;SDS011;69283;48.024;11.090;2024-01-30T04:40:00;5.43;;;2.67;;
79798;SDS011;69283;48.024;11.090;2024-01-30T04:42:26;4.32;;;2.30;;
79798;SDS011;69283;48.024;11.090;2024-01-30T04:46:53;6.65;;;2.50;;
79798;SDS011;69283;48.024;11.090;2024-01-30T04:49:18;6.13;;;2.38;;
79798;SDS011;69283;48.024;11.090;2024-01-30T04:51:44;6.17;;;2.13;;
79798;SDS011;69283;48.024;11.090;2024-01-30T04:54:09;4.43;;;2.33;;
79798;SDS011;69283;48.024;11.090;2024-01-30T04:56:34;3.43;;;1.93;;
79798;SDS011;69283;48.024;11.090;2024-01-30T04:59:00;5.20;;;2.40;;
79798;SDS011;69283;48.024;11.090;2024-01-30T05:01:27;8.00;;;3.10;;
79798;SDS011;69283;48.024;11.090;2024-01-30T05:03:52;9.05;;;4.38;;
79798;SDS011;69283;48.024;11.090;2024-01-30T05:06:24;9.70;;;4.80;;
79798;SDS011;69283;48.024;11.090;2024-01-30T05:08:50;7.82;;;3.97;;
79798;SDS011;69283;48.024;11.090;2024-01-30T05:13:10;7.75;;;3.72;;
79798;SDS011;69283;48.024;11.090;2024-01-30T05:15:35;6.97;;;3.65;;
79798;SDS011;69283;48.024;11.090;2024-01-30T05:18:00;7.33;;;4.50;;
79798;SDS011;69283;48.024;11.090;2024-01-30T05:20:26;10.02;;;5.05;;
79798;SDS011;69283;48.024;11.090;2024-01-30T05:22:53;7.43;;;3.67;;
79798;SDS011;69283;48.024;11.090;2024-01-30T05:25:18;5.47;;;3.17;;
79798;SDS011;69283;48.024;11.090;2024-01-30T05:27:44;6.97;;;3.30;;
79798;SDS011;69283;48.024;11.090;2024-01-30T05:30:09;8.23;;;4.13;;
79798;SDS011;69283;48.024;11.090;2024-01-30T05:32:35;8.48;;;4.72;;
79798;SDS011;69283;48.024;11.090;2024-01-30T05:37:52;17.88;;;7.85;;
79798;SDS011;69283;48.024;11.090;2024-01-30T05:40:18;11.50;;;5.85;;
79798;SDS011;69283;48.024;11.090;2024-01-30T05:42:43;9.45;;;4.03;;
79798;SDS011;69283;48.024;11.090;2024-01-30T05:45:09;6.37;;;3.23;;
79798;SDS011;69283;48.024;11.090;2024-01-30T05:47:34;6.45;;;3.20;;
79798;SDS011;69283;48.024;11.090;2024-01-30T05:50:00;9.40;;;3.58;;
79798;SDS011;69283;48.024;11.090;2024-01-30T05:52:25;4.85;;;3.20;;
79798;SDS011;69283;48.024;11.090;2024-01-30T05:54:50;6.90;;;3.17;;
79798;SDS011;69283;48.024;11.090;2024-01-30T05:57:16;5.75;;;3.00;;
79798;SDS011;69283;48.024;11.090;2024-01-30T06:02:24;5.20;;;2.67;;
79798;SDS011;69283;48.024;11.090;2024-01-30T06:04:49;6.07;;;3.17;;
79798;SDS011;69283;48.024;11.090;2024-01-30T06:07:14;7.75;;;2.70;;
79798;SDS011;69283;48.024;11.090;2024-01-30T06:09:40;4.45;;;2.20;;
79798;SDS011;69283;48.024;11.090;2024-01-30T06:12:06;3.22;;;1.95;;
79798;SDS011;69283;48.024;11.090;2024-01-30T06:14:31;5.90;;;3.15;;
79798;SDS011;69283;48.024;11.090;2024-01-30T06:16:57;7.65;;;3.15;;
79798;SDS011;69283;48.024;11.090;2024-01-30T06:19:23;4.88;;;2.20;;
79798;SDS011;69283;48.024;11.090;2024-01-30T06:21:48;5.07;;;2.03;;
79798;SDS011;69283;48.024;11.090;2024-01-30T06:26:35;5.85;;;2.10;;
79798;SDS011;69283;48.024;11.090;2024-01-30T06:29:00;5.05;;;2.25;;
79798;SDS011;69283;48.024;11.090;2024-01-30T06:31:26;6.17;;;2.17;;
79798;SDS011;69283;48.024;11.090;2024-01-30T06:33:51;4.43;;;2.10;;
79798;SDS011;69283;48.024;11.090;2024-01-30T06:36:16;3.45;;;1.80;;
79798;SDS011;69283;48.024;11.090;2024-01-30T06:38:42;8.13;;;2.23;;
79798;SDS011;69283;48.024;11.090;2024-01-30T06:41:07;6.10;;;2.47;;
79798;SDS011;69283;48.024;11.090;2024-01-30T06:43:32;8.20;;;3.13;;
79798;SDS011;69283;48.024;11.090;2024-01-30T06:45:58;16.73;;;7.03;;
79798;SDS011;69283;48.024;11.090;2024-01-30T06:48:24;12.75;;;6.32;;
79798;SDS011;69283;48.024;11.090;2024-01-30T06:52:16;9.65;;;5.22;;
79798;SDS011;69283;48.024;11.090;2024-01-30T06:54:42;12.67;;;5.87;;
79798;SDS011;69283;48.024;11.090;2024-01-30T06:57:07;10.13;;;5.30;;
79798;SDS011;69283;48.024;11.090;2024-01-30T06:59:36;14.60;;;5.07;;
79798;SDS011;69283;48.024;11.090;2024-01-30T07:02:02;8.43;;;4.05;;
79798;SDS011;69283;48.024;11.090;2024-01-30T07:04:27;7.78;;;4.00;;
79798;SDS011;69283;48.024;11.090;2024-01-30T07:06:53;10.32;;;4.20;;
79798;SDS011;69283;48.024;11.090;2024-01-30T07:09:18;9.68;;;4.97;;
79798;SDS011;69283;48.024;11.090;2024-01-30T07:11:43;13.43;;;5.90;;
79798;SDS011;69283;48.024;11.090;2024-01-30T07:16:12;8.98;;;5.20;;
79798;SDS011;69283;48.024;11.090;2024-01-30T07:18:37;11.07;;;5.07;;
79798;SDS011;69283;48.024;11.090;2024-01-30T07:21:03;7.35;;;4.68;;
79798;SDS011;69283;48.024;11.090;2024-01-30T07:23:29;8.40;;;4.80;;
79798;SDS011;69283;48.024;11.090;2024-01-30T07:25:55;10.20;;;4.57;;
79798;SDS011;69283;48.024;11.090;2024-01-30T07:28:20;8.87;;;4.20;;
79798;SDS011;69283;48.024;11.090;2024-01-30T07:30:45;5.78;;;3.55;;
79798;SDS011;69283;48.024;11.090;2024-01-30T07:33:11;6.25;;;2.92;;
79798;SDS011;69283;48.024;11.090;2024-01-30T07:35:36;5.43;;;2.80;;
79798;SDS011;69283;48.024;11.090;2024-01-30T07:40:38;8.02;;;3.70;;
79798;SDS011;69283;48.024;11.090;2024-01-30T07:43:04;8.90;;;3.30;;
79798;SDS011;69283;48.024;11.090;2024-01-30T07:45:29;12.32;;;4.88;;
79798;SDS011;69283;48.024;11.090;2024-01-30T07:47:58;16.80;;;6.60;;
79798;SDS011;69283;48.024;11.090;2024-01-30T07:50:24;13.52;;;5.30;;
79798;SDS011;69283;48.024;11.090;2024-01-30T07:52:50;12.57;;;5.57;;
79798;SDS011;69283;48.024;11.090;2024-01-30T07:55:19;13.32;;;5.40;;
79798;SDS011;69283;48.024;11.090;2024-01-30T07:57:45;13.38;;;5.80;;
79798;SDS011;69283;48.024;11.090;2024-01-30T08:00:11;14.25;;;6.68;;
79798;SDS011;69283;48.024;11.090;2024-01-30T08:02:36;17.30;;;8.50;;
79798;SDS011;69283;48.024;11.090;2024-01-30T08:06:54;20.02;;;8.82;;
79798;SDS011;69283;48.024;11.090;2024-01-30T08:09:19;14.60;;;7.07;;
79798;SDS011;69283;48.024;11.090;2024-01-30T08:11:45;15.67;;;7.77;;
79798;SDS011;69283;48.024;11.090;2024-01-30T08:14:10;11.10;;;5.47;;
79798;SDS011;69283;48.024;11.090;2024-01-30T08:16:35;9.98;;;4.38;;
79798;SDS011;69283;48.024;11.090;2024-01-30T08:19:01;8.47;;;3.57;;
79798;SDS011;69283;48.024;11.090;2024-01-30T08:21:26;5.95;;;3.03;;
79798;SDS011;69283;48.024;11.090;2024-01-30T08:23:51;6.28;;;3.47;;
79798;SDS011;69283;48.024;11.090;2024-01-30T08:26:17;37.28;;;16.50;;
79798;SDS011;69283;48.024;11.090;2024-01-30T08:28:42;22.23;;;11.02;;
79798;SDS011;69283;48.024;11.090;2024-01-30T08:31:09;12.73;;;6.13;;
79798;SDS011;69283;48.024;11.090;2024-01-30T08:34:38;9.82;;;5.03;;
79798;SDS011;69283;48.024;11.090;2024-01-30T08:37:03;10.18;;;4.65;;
79798;SDS011;69283;48.024;11.090;2024-01-30T08:39:28;11.70;;;5.00;;
79798;SDS011;69283;48.024;11.090;2024-01-30T08:41:54;9.93;;;4.57;;
79798;SDS011;69283;48.024;11.090;2024-01-30T08:44:19;12.23;;;4.68;;
79798;SDS011;69283;48.024;11.090;2024-01-30T08:46:44;10.50;;;4.38;;
79798;SDS011;69283;48.024;11.090;2024-01-30T08:49:10;10.68;;;4.22;;
79798;SDS011;69283;48.024;11.090;2024-01-30T08:51:38;11.82;;;4.50;;
79798;SDS011;69283;48.024;11.090;2024-01-30T08:54:03;7.70;;;3.25;;
79798;SDS011;69283;48.024;11.090;2024-01-30T08:59:23;11.55;;;5.70;;
79798;SDS011;69283;48.024;11.090;2024-01-30T09:01:48;13.50;;;5.05;;
79798;SDS011;69283;48.024;11.090;2024-01-30T09:04:14;9.53;;;3.80;;
79798;SDS011;69283;48.024;11.090;2024-01-30T09:06:39;5.63;;;3.33;;
79798;SDS011;69283;48.024;11.090;2024-01-30T09:09:04;5.88;;;3.72;;
79798;SDS011;69283;48.024;11.090;2024-01-30T09:11:30;6.00;;;2.83;;
79798;SDS011;69283;48.024;11.090;2024-01-30T09:13:56;4.05;;;2.15;;
79798;SDS011;69283;48.024;11.090;2024-01-30T09:16:21;6.75;;;3.53;;
79798;SDS011;69283;48.024;11.090;2024-01-30T09:18:46;7.70;;;2.83;;
79798;SDS011;69283;48.024;11.090;2024-01-30T09:24:02;13.68;;;6.15;;
79798;SDS011;69283;48.024;11.090;2024-01-30T09:26:29;8.88;;;3.90;;
79798;SDS011;69283;48.024;11.090;2024-01-30T09:28:54;5.50;;;3.47;;
79798;SDS011;69283;48.024;11.090;2024-01-30T09:31:19;5.60;;;2.20;;
79798;SDS011;69283;48.024;11.090;2024-01-30T09:33:44;4.73;;;2.00;;
79798;SDS011;69283;48.024;11.090;2024-01-30T09:36:12;5.30;;;2.40;;
79798;SDS011;69283;48.024;11.090;2024-01-30T09:38:40;4.65;;;2.33;;
79798;SDS011;69283;48.024;11.090;2024-01-30T09:41:05;4.77;;;1.90;;
79798;SDS011;69283;48.024;11.090;2024-01-30T09:43:35;4.07;;;2.00;;
79798;SDS011;69283;48.024;11.090;2024-01-30T09:46:03;6.68;;;2.40;;
79798;SDS011;69283;48.024;11.090;2024-01-30T09:48:30;3.72;;;2.22;;
79798;SDS011;69283;48.024;11.090;2024-01-30T09:52:08;4.13;;;2.13;;
79798;SDS011;69283;48.024;11.090;2024-01-30T09:54:34;2.97;;;1.83;;
79798;SDS011;69283;48.024;11.090;2024-01-30T09:57:00;5.47;;;3.00;;
79798;SDS011;69283;48.024;11.090;2024-01-30T09:59:25;5.27;;;2.73;;
79798;SDS011;69283;48.024;11.090;2024-01-30T10:01:51;5.30;;;2.33;;
79798;SDS011;69283;48.024;11.090;2024-01-30T10:04:17;4.03;;;1.80;;
79798;SDS011;69283;48.024;11.090;2024-01-30T10:06:42;5.28;;;2.78;;
79798;SDS011;69283;48.024;11.090;2024-01-30T10:09:07;4.25;;;2.28;;
79798;SDS011;69283;48.024;11.090;2024-01-30T10:11:36;4.65;;;2.00;;
79798;SDS011;69283;48.024;11.090;2024-01-30T10:17:24;4.88;;;2.17;;
79798;SDS011;69283;48.024;11.090;2024-01-30T10:19:52;5.32;;;2.35;;
79798;SDS011;69283;48.024;11.090;2024-01-30T10:22:17;5.93;;;2.63;;
79798;SDS011;69283;48.024;11.090;2024-01-30T10:24:42;4.93;;;2.45;;
79798;SDS011;69283;48.024;11.090;2024-01-30T10:27:10;9.32;;;5.10;;
79798;SDS011;69283;48.024;11.090;2024-01-30T10:29:35;7.63;;;3.73;;
79798;SDS011;69283;48.024;11.090;2024-01-30T10:32:02;6.35;;;3.22;;
79798;SDS011;69283;48.024;11.090;2024-01-30T10:34:28;10.15;;;4.55;;
79798;SDS011;69283;48.024;11.090;2024-01-30T10:37:15;13.25;;;5.65;;
79798;SDS011;69283;48.024;11.090;2024-01-30T10:39:42;8.90;;;4.22;;
79798;SDS011;69283;48.024;11.090;2024-01-30T10:44:21;4.72;;;3.30;;
79798;SDS011;69283;48.024;11.090;2024-01-30T10:46:49;5.57;;;3.55;;
79798;SDS011;69283;48.024;11.090;2024-01-30T10:49:21;3.95;;;2.70;;
79798;SDS011;69283;48.024;11.090;2024-01-30T10:51:48;6.80;;;3.55;;
79798;SDS011;69283;48.024;11.090;2024-01-30T10:54:14;3.95;;;2.60;;
79798;SDS011;69283;48.024;11.090;2024-01-30T10:56:40;4.45;;;3.20;;
79798;SDS011;69283;48.024;11.090;2024-01-30T10:59:07;4.82;;;3.55;;
79798;SDS011;69283;48.024;11.090;2024-01-30T11:01:34;6.90;;;3.33;;
79798;SDS011;69283;48.024;11.090;2024-01-30T11:04:00;4.45;;;2.60;;
79798;SDS011;69283;48.024;11.090;2024-01-30T11:06:26;6.40;;;3.38;;
79798;SDS011;69283;48.024;11.090;2024-01-30T11:11:50;4.90;;;2.80;;
79798;SDS011;69283;48.024;11.090;2024-01-30T11:14:25;12.30;;;5.72;;
79798;SDS011;69283;48.024;11.090;2024-01-30T11:16:51;12.68;;;7.65;;
79798;SDS011;69283;48.024;11.090;2024-01-30T11:19:23;12.32;;;6.70;;
79798;SDS011;69283;48.024;11.090;2024-01-30T11:21:55;16.67;;;7.28;;
79798;SDS011;69283;48.024;11.090;2024-01-30T11:24:22;9.50;;;4.80;;
79798;SDS011;69283;48.024;11.090;2024-01-30T11:26:48;7.63;;;4.80;;
79798;SDS011;69283;48.024;11.090;2024-01-30T11:29:35;15.38;;;6.38;;
79798;SDS011;69283;48.024;11.090;2024-01-30T11:32:00;11.23;;;6.10;;
79798;SDS011;69283;48.024;11.090;2024-01-30T11:39:24;4.07;;;2.13;;
79798;SDS011;69283;48.024;11.090;2024-01-30T11:41:50;6.07;;;3.00;;
79798;SDS011;69283;48.024;11.090;2024-01-30T11:44:16;5.13;;;2.55;;
79798;SDS011;69283;48.024;11.090;2024-01-30T11:46:42;7.30;;;3.53;;
79798;SDS011;69283;48.024;11.090;2024-01-30T11:49:07;4.97;;;3.08;;
79798;SDS011;69283;48.024;11.090;2024-01-30T11:51:32;5.15;;;2.88;;
79798;SDS011;69283;48.024;11.090;2024-01-30T11:53:58;4.85;;;2.70;;
79798;SDS011;69283;48.024;11.090;2024-01-30T11:56:23;5.47;;;2.72;;
79798;SDS011;69283;48.024;11.090;2024-01-30T11:58:50;4.95;;;2.60;;
79798;SDS011;69283;48.024;11.090;2024-01-30T12:04:18;6.00;;;3.28;;
79798;SDS011;69283;48.024;11.090;2024-01-30T12:06:44;5.13;;;2.70;;
79798;SDS011;69283;48.024;11.090;2024-01-30T12:09:09;5.47;;;3.30;;
79798;SDS011;69283;48.024;11.090;2024-01-30T12:11:43;6.88;;;2.72;;
79798;SDS011;69283;48.024;11.090;2024-01-30T12:14:10;9.35;;;4.03;;
79798;SDS011;69283;48.024;11.090;2024-01-30T12:16:36;9.93;;;4.15;;
79798;SDS011;69283;48.024;11.090;2024-01-30T12:19:02;11.00;;;5.00;;
79798;SDS011;69283;48.024;11.090;2024-01-30T12:21:27;14.25;;;5.50;;
79798;SDS011;69283;48.024;11.090;2024-01-30T12:23:53;11.85;;;5.18;;
79798;SDS011;69283;48.024;11.090;2024-01-30T12:28:59;10.48;;;4.40;;
79798;SDS011;69283;48.024;11.090;2024-01-30T12:31:26;7.18;;;3.13;;
79798;SDS011;69283;48.024;11.090;2024-01-30T12:33:53;7.65;;;2.53;;
79798;SDS011;69283;48.024;11.090;2024-01-30T12:36:18;8.40;;;2.92;;
79798;SDS011;69283;48.024;11.090;2024-01-30T12:38:44;9.63;;;3.42;;
79798;SDS011;69283;48.024;11.090;2024-01-30T12:41:09;10.65;;;2.83;;
79798;SDS011;69283;48.024;11.090;2024-01-30T12:43:35;9.15;;;3.65;;
79798;SDS011;69283;48.024;11.090;2024-01-30T12:46:01;11.13;;;4.00;;
79798;SDS011;69283;48.024;11.090;2024-01-30T12:48:27;8.07;;;2.92;;
79798;SDS011;69283;48.024;11.090;2024-01-30T12:50:54;7.38;;;2.63;;
79798;SDS011;69283;48.024;11.090;2024-01-30T12:54:50;3.53;;;1.90;;
79798;SDS011;69283;48.024;11.090;2024-01-30T12:57:17;4.57;;;1.65;;
79798;SDS011;69283;48.024;11.090;2024-01-30T12:59:46;4.57;;;1.50;;
79798;SDS011;69283;48.024;11.090;2024-01-30T13:02:12;3.03;;;1.52;;
79798;SDS011;69283;48.024;11.090;2024-01-30T13:04:38;3.47;;;1.73;;
79798;SDS011;69283;48.024;11.090;2024-01-30T13:07:04;5.43;;;2.60;;
79798;SDS011;69283;48.024;11.090;2024-01-30T13:09:30;2.33;;;1.50;;
79798;SDS011;69283;48.024;11.090;2024-01-30T13:11:56;3.40;;;1.52;;
79798;SDS011;69283;48.024;11.090;2024-01-30T13:14:22;4.80;;;1.98;;
79798;SDS011;69283;48.024;11.090;2024-01-30T13:16:47;5.27;;;2.40;;
79798;SDS011;69283;48.024;11.090;2024-01-30T13:22:13;6.07;;;2.28;;
79798;SDS011;69283;48.024;11.090;2024-01-30T13:24:38;4.13;;;1.85;;
79798;SDS011;69283;48.024;11.090;2024-01-30T13:27:03;4.40;;;1.90;;
79798;SDS011;69283;48.024;11.090;2024-01-30T13:29:31;7.18;;;2.67;;
79798;SDS011;69283;48.024;11.090;2024-01-30T13:31:56;4.30;;;2.67;;
79798;SDS011;69283;48.024;11.090;2024-01-30T13:34:21;5.27;;;2.73;;
79798;SDS011;69283;48.024;11.090;2024-01-30T13:36:47;9.52;;;4.15;;
79798;SDS011;69283;48.024;11.090;2024-01-30T13:39:13;13.05;;;5.25;;
79798;SDS011;69283;48.024;11.090;2024-01-30T13:41:39;15.10;;;5.20;;
79798;SDS011;69283;48.024;11.090;2024-01-30T13:44:05;9.25;;;3.47;;
79798;SDS011;69283;48.024;11.090;2024-01-30T13:48:14;8.45;;;3.75;;
79798;SDS011;69283;48.024;11.090;2024-01-30T13:50:39;6.82;;;3.05;;
79798;SDS011;69283;48.024;11.090;2024-01-30T13:53:05;6.80;;;3.27;;
79798;SDS011;69283;48.024;11.090;2024-01-30T13:55:30;10.30;;;3.72;;
79798;SDS011;69283;48.024;11.090;2024-01-30T13:57:55;9.43;;;3.10;;
79798;SDS011;69283;48.024;11.090;2024-01-30T14:00:21;7.63;;;2.60;;
79798;SDS011;69283;48.024;11.090;2024-01-30T14:02:47;8.23;;;2.95;;
79798;SDS011;69283;48.024;11.090;2024-01-30T14:05:13;7.22;;;2.47;;
79798;SDS011;69283;48.024;11.090;2024-01-30T14:07:39;5.80;;;2.80;;
79798;SDS011;69283;48.024;11.090;2024-01-30T14:12:41;6.45;;;2.88;;
79798;SDS011;69283;48.024;11.090;2024-01-30T14:15:08;6.25;;;2.75;;
79798;SDS011;69283;48.024;11.090;2024-01-30T14:17:35;6.82;;;2.50;;
79798;SDS011;69283;48.024;11.090;2024-01-30T14:20:00;8.60;;;2.90;;
79798;SDS011;69283;48.024;11.090;2024-01-30T14:22:27;6.28;;;2.47;;
79798;SDS011;69283;48.024;11.090;2024-01-30T14:24:53;7.90;;;3.17;;
79798;SDS011;69283;48.024;11.090;2024-01-30T14:27:18;5.38;;;2.22;;
79798;SDS011;69283;48.024;11.090;2024-01-30T14:29:43;4.23;;;1.97;;
79798;SDS011;69283;48.024;11.090;2024-01-30T14:32:09;3.08;;;1.70;;
79798;SDS011;69283;48.024;11.090;2024-01-30T14:34:34;4.80;;;1.85;;
79798;SDS011;69283;48.024;11.090;2024-01-30T14:38:39;2.47;;;1.35;;
79798;SDS011;69283;48.024;11.090;2024-01-30T14:41:05;7.40;;;1.90;;
79798;SDS011;69283;48.024;11.090;2024-01-30T14:43:30;4.53;;;2.13;;
79798;SDS011;69283;48.024;11.090;2024-01-30T14:45:56;5.50;;;1.95;;
79798;SDS011;69283;48.024;11.090;2024-01-30T14:48:21;7.43;;;3.03;;
79798;SDS011;69283;48.024;11.090;2024-01-30T14:50:47;8.05;;;3.42;;
79798;SDS011;69283;48.024;11.090;2024-01-30T14:53:12;10.37;;;3.67;;
79798;SDS011;69283;48.024;11.090;2024-01-30T14:55:38;7.85;;;4.00;;
79798;SDS011;69283;48.024;11.090;2024-01-30T14:58:03;8.33;;;3.60;;
79798;SDS011;69283;48.024;11.090;2024-01-30T15:03:06;8.20;;;5.38;;
79798;SDS011;69283;48.024;11.090;2024-01-30T15:05:31;10.83;;;6.33;;
79798;SDS011;69283;48.024;11.090;2024-01-30T15:07:56;11.30;;;6.97;;
79798;SDS011;69283;48.024;11.090;2024-01-30T15:10:22;9.10;;;7.65;;
79798;SDS011;69283;48.024;11.090;2024-01-30T15:12:47;9.52;;;6.13;;
79798;SDS011;69283;48.024;11.090;2024-01-30T15:15:12;8.00;;;5.73;;
79798;SDS011;69283;48.024;11.090;2024-01-30T15:17:38;10.30;;;5.73;;
79798;SDS011;69283;48.024;11.090;2024-01-30T15:20:03;6.60;;;4.88;;
79798;SDS011;69283;48.024;11.090;2024-01-30T15:22:29;8.38;;;4.88;;
79798;SDS011;69283;48.024;11.090;2024-01-30T15:24:54;8.27;;;5.30;;
79798;SDS011;69283;48.024;11.090;2024-01-30T15:29:58;12.57;;;6.45;;
79798;SDS011;69283;48.024;11.090;2024-01-30T15:32:24;8.77;;;5.60;;
79798;SDS011;69283;48.024;11.090;2024-01-30T15:34:50;8.18;;;5.30;;
79798;SDS011;69283;48.024;11.090;2024-01-30T15:37:15;12.07;;;5.93;;
79798;SDS011;69283;48.024;11.090;2024-01-30T15:39:40;11.73;;;6.15;;
79798;SDS011;69283;48.024;11.090;2024-01-30T15:42:06;12.00;;;5.27;;
79798;SDS011;69283;48.024;11.090;2024-01-30T15:44:31;16.67;;;7.40;;
79798;SDS011;69283;48.024;11.090;2024-01-30T15:46:57;13.95;;;6.45;;
79798;SDS011;69283;48.024;11.090;2024-01-30T15:49:22;16.42;;;6.95;;
79798;SDS011;69283;48.024;11.090;2024-01-30T15:54:42;31.98;;;10.18;;
79798;SDS011;69283;48.024;11.090;2024-01-30T15:57:08;14.63;;;6.60;;
79798;SDS011;69283;48.024;11.090;2024-01-30T15:59:33;14.25;;;5.95;;